sensor_id;sensor_type;location;lat;lon;timestamp;pressure;altitude;pressure_sealevel;temperature;humidity
52923;BME280;38796;42.702;23.306;2022-09-13T07:16:10;95109.75;;;19.65;53.86
52923;BME280;38796;42.702;23.306;2022-09-13T07:18:09;95105.50;;;19.71;54.89
52923;BME280;38796;42.702;23.306;2022-09-13T07:20:07;95101.13;;;19.63;54.80
52923;BME280;38796;42.702;23.306;2022-09-13T07:22:06;95108.50;;;19.89;54.68
52923;BME280;38796;42.702;23.306;2022-09-13T07:24:04;95109.16;;;19.91;54.06
52923;BME280;38796;42.702;23.306;2022-09-13T07:26:04;95101.78;;;20.00;53.23
52923;BME280;38796;42.702;23.306;2022-09-13T07:28:03;95104.25;;;20.01;53.13
52923;BME280;38796;42.702;23.306;2022-09-13T07:30:01;95106.63;;;20.17;52.63
52923;BME280;38796;42.702;23.306;2022-09-13T07:32:01;95106.78;;;20.09;52.98
52923;BME280;38796;42.702;23.306;2022-09-13T07:34:01;95102.44;;;20.02;52.44
52923;BME280;38796;42.702;23.306;2022-09-13T07:35:59;95104.72;;;20.11;52.29
52923;BME280;38796;42.702;23.306;2022-09-13T07:38:02;95108.66;;;20.15;51.75
52923;BME280;38796;42.702;23.306;2022-09-13T07:40:00;95108.31;;;20.25;51.52
52923;BME280;38796;42.702;23.306;2022-09-13T07:41:59;95103.84;;;20.39;51.12
52923;BME280;38796;42.702;23.306;2022-09-13T07:43:57;95112.41;;;20.56;50.88
52923;BME280;38796;42.702;23.306;2022-09-13T07:45:57;95107.25;;;20.61;50.99
52923;BME280;38796;42.702;23.306;2022-09-13T07:47:58;95107.16;;;20.89;50.48
52923;BME280;38796;42.702;23.306;2022-09-13T07:49:56;95115.56;;;20.86;49.82
52923;BME280;38796;42.702;23.306;2022-09-13T07:51:54;95121.56;;;20.88;50.34
52923;BME280;38796;42.702;23.306;2022-09-13T07:53:54;95118.66;;;20.83;49.65
52923;BME280;38796;42.702;23.306;2022-09-13T07:55:53;95110.84;;;20.88;48.50
52923;BME280;38796;42.702;23.306;2022-09-13T07:57:56;95111.34;;;21.25;47.74
52923;BME280;38796;42.702;23.306;2022-09-13T07:59:55;95108.91;;;21.37;48.48
52923;BME280;38796;42.702;23.306;2022-09-13T08:01:53;95113.22;;;21.57;47.67
52923;BME280;38796;42.702;23.306;2022-09-13T08:03:54;95110.34;;;21.39;47.37
52923;BME280;38796;42.702;23.306;2022-09-13T08:05:53;95110.94;;;21.34;46.96
52923;BME280;38796;42.702;23.306;2022-09-13T08:07:51;95111.78;;;21.68;46.56
52923;BME280;38796;42.702;23.306;2022-09-13T08:09:49;95104.34;;;21.90;45.74
52923;BME280;38796;42.702;23.306;2022-09-13T08:11:49;95110.72;;;22.22;44.46
52923;BME280;38796;42.702;23.306;2022-09-13T08:13:50;95107.78;;;22.11;43.30
52923;BME280;38796;42.702;23.306;2022-09-13T08:15:48;95109.13;;;21.75;43.51
52923;BME280;38796;42.702;23.306;2022-09-13T08:17:47;95113.84;;;21.59;42.08
52923;BME280;38796;42.702;23.306;2022-09-13T08:19:47;95113.97;;;21.05;43.24
52923;BME280;38796;42.702;23.306;2022-09-13T08:21:45;95111.50;;;20.49;44.98
52923;BME280;38796;42.702;23.306;2022-09-13T08:23:44;95105.66;;;20.80;46.19
52923;BME280;38796;42.702;23.306;2022-09-13T08:25:42;95107.59;;;21.12;45.88
52923;BME280;38796;42.702;23.306;2022-09-13T08:27:41;95110.66;;;21.09;44.99
52923;BME280;38796;42.702;23.306;2022-09-13T08:29:39;95103.28;;;21.18;45.66
52923;BME280;38796;42.702;23.306;2022-09-13T08:31:37;95096.94;;;21.66;44.74
52923;BME280;38796;42.702;23.306;2022-09-13T08:33:36;95099.38;;;22.00;43.22
52923;BME280;38796;42.702;23.306;2022-09-13T08:35:49;95092.81;;;21.76;42.77
52923;BME280;38796;42.702;23.306;2022-09-13T08:37:48;95101.44;;;21.85;43.38
52923;BME280;38796;42.702;23.306;2022-09-13T08:39:46;95098.34;;;21.95;43.11
52923;BME280;38796;42.702;23.306;2022-09-13T08:42:17;95094.47;;;21.44;43.76
52923;BME280;38796;42.702;23.306;2022-09-13T08:44:25;95090.09;;;21.17;43.87
52923;BME280;38796;42.702;23.306;2022-09-13T08:46:27;95093.81;;;21.16;44.08
52923;BME280;38796;42.702;23.306;2022-09-13T08:48:31;95095.81;;;20.87;44.02
52923;BME280;38796;42.702;23.306;2022-09-13T08:50:32;95088.50;;;20.54;44.23
52923;BME280;38796;42.702;23.306;2022-09-13T08:52:39;95085.22;;;20.59;44.41
52923;BME280;38796;42.702;23.306;2022-09-13T08:54:41;95089.94;;;20.50;44.12
52923;BME280;38796;42.702;23.306;2022-09-13T08:56:43;95087.22;;;21.11;43.86
52923;BME280;38796;42.702;23.306;2022-09-13T08:59:02;95092.41;;;21.86;42.81
52923;BME280;38796;42.702;23.306;2022-09-13T09:01:06;95089.72;;;21.86;41.57
52923;BME280;38796;42.702;23.306;2022-09-13T09:03:16;95075.50;;;21.66;40.53
52923;BME280;38796;42.702;23.306;2022-09-13T09:05:19;95088.47;;;21.22;40.08
52923;BME280;38796;42.702;23.306;2022-09-13T09:07:20;95094.22;;;21.19;40.14
52923;BME280;38796;42.702;23.306;2022-09-13T09:09:22;95095.44;;;21.03;40.80
52923;BME280;38796;42.702;23.306;2022-09-13T09:11:28;95088.38;;;20.76;41.60
52923;BME280;38796;42.702;23.306;2022-09-13T09:13:36;95095.03;;;20.45;42.09
52923;BME280;38796;42.702;23.306;2022-09-13T09:15:42;95087.16;;;20.37;42.63
52923;BME280;38796;42.702;23.306;2022-09-13T09:17:46;95098.31;;;20.47;43.30
52923;BME280;38796;42.702;23.306;2022-09-13T09:19:48;95099.53;;;20.38;43.74
52923;BME280;38796;42.702;23.306;2022-09-13T09:21:50;95098.69;;;20.37;43.90
52923;BME280;38796;42.702;23.306;2022-09-13T09:23:50;95096.34;;;20.62;43.95
52923;BME280;38796;42.702;23.306;2022-09-13T09:26:12;95092.69;;;20.77;42.47
52923;BME280;38796;42.702;23.306;2022-09-13T09:28:14;95094.50;;;20.70;42.94
52923;BME280;38796;42.702;23.306;2022-09-13T09:30:13;95088.34;;;22.42;39.48
52923;BME280;38796;42.702;23.306;2022-09-13T09:32:22;95081.78;;;25.48;35.31
52923;BME280;38796;42.702;23.306;2022-09-13T09:34:34;95067.22;;;29.35;29.31
52923;BME280;38796;42.702;23.306;2022-09-13T09:36:42;95071.13;;;31.24;25.61
52923;BME280;38796;42.702;23.306;2022-09-13T09:38:42;95057.03;;;32.24;24.79
52923;BME280;38796;42.702;23.306;2022-09-13T09:40:40;95056.91;;;32.70;23.77
52923;BME280;38796;42.702;23.306;2022-09-13T09:42:42;95060.88;;;32.02;25.41
52923;BME280;38796;42.702;23.306;2022-09-13T09:44:42;95051.50;;;33.24;22.14
52923;BME280;38796;42.702;23.306;2022-09-13T09:46:43;95057.09;;;31.93;24.03
52923;BME280;38796;42.702;23.306;2022-09-13T09:48:47;95057.03;;;31.47;24.91
52923;BME280;38796;42.702;23.306;2022-09-13T09:50:50;95055.38;;;32.33;23.50
52923;BME280;38796;42.702;23.306;2022-09-13T09:52:52;95050.88;;;32.83;22.62
52923;BME280;38796;42.702;23.306;2022-09-13T09:54:58;95045.56;;;33.57;22.42
52923;BME280;38796;42.702;23.306;2022-09-13T09:56:59;95052.28;;;34.33;21.74
52923;BME280;38796;42.702;23.306;2022-09-13T09:58:59;95040.22;;;32.97;22.75
52923;BME280;38796;42.702;23.306;2022-09-13T10:00:59;95029.41;;;33.65;22.69
52923;BME280;38796;42.702;23.306;2022-09-13T10:02:59;95033.88;;;32.32;24.25
52923;BME280;38796;42.702;23.306;2022-09-13T10:05:00;95042.91;;;32.12;23.47
52923;BME280;38796;42.702;23.306;2022-09-13T10:07:16;95030.13;;;31.97;23.95
52923;BME280;38796;42.702;23.306;2022-09-13T10:09:19;95018.50;;;33.21;22.57
52923;BME280;38796;42.702;23.306;2022-09-13T10:11:18;95025.75;;;32.96;23.16
52923;BME280;38796;42.702;23.306;2022-09-13T10:13:20;95022.44;;;32.19;22.68
52923;BME280;38796;42.702;23.306;2022-09-13T10:15:22;95023.84;;;31.50;23.96
52923;BME280;38796;42.702;23.306;2022-09-13T10:17:24;95022.19;;;32.21;23.79
52923;BME280;38796;42.702;23.306;2022-09-13T10:19:24;95018.88;;;32.49;23.89
52923;BME280;38796;42.702;23.306;2022-09-13T10:21:24;95014.56;;;32.18;23.71
52923;BME280;38796;42.702;23.306;2022-09-13T10:23:24;95015.97;;;31.54;24.40
52923;BME280;38796;42.702;23.306;2022-09-13T10:25:24;95018.84;;;32.34;24.03
52923;BME280;38796;42.702;23.306;2022-09-13T10:27:34;95013.34;;;33.19;22.31
52923;BME280;38796;42.702;23.306;2022-09-13T10:29:33;95019.56;;;32.70;23.09
52923;BME280;38796;42.702;23.306;2022-09-13T10:31:36;95017.56;;;32.91;23.50
52923;BME280;38796;42.702;23.306;2022-09-13T10:33:37;95008.66;;;32.70;22.53
52923;BME280;38796;42.702;23.306;2022-09-13T10:35:39;95013.91;;;30.83;24.16
52923;BME280;38796;42.702;23.306;2022-09-13T10:37:41;95014.53;;;31.10;25.36
52923;BME280;38796;42.702;23.306;2022-09-13T10:39:52;95012.75;;;30.63;25.36
52923;BME280;38796;42.702;23.306;2022-09-13T10:41:55;95013.03;;;28.86;27.79
52923;BME280;38796;42.702;23.306;2022-09-13T10:43:56;95008.44;;;27.14;28.66
52923;BME280;38796;42.702;23.306;2022-09-13T10:45:56;95019.56;;;26.08;31.59
52923;BME280;38796;42.702;23.306;2022-09-13T10:50:26;94999.88;;;24.96;32.96
52923;BME280;38796;42.702;23.306;2022-09-13T10:52:33;95004.34;;;24.72;34.15
52923;BME280;38796;42.702;23.306;2022-09-13T10:54:32;95006.44;;;24.69;34.39
52923;BME280;38796;42.702;23.306;2022-09-13T10:56:30;94995.84;;;24.86;33.42
52923;BME280;38796;42.702;23.306;2022-09-13T10:58:28;94986.47;;;24.47;33.26
52923;BME280;38796;42.702;23.306;2022-09-13T11:00:30;94990.22;;;24.46;34.05
52923;BME280;38796;42.702;23.306;2022-09-13T11:02:53;94996.69;;;24.57;33.68
52923;BME280;38796;42.702;23.306;2022-09-13T11:05:15;94989.31;;;24.15;33.24
52923;BME280;38796;42.702;23.306;2022-09-13T11:09:52;94984.22;;;24.26;35.01
52923;BME280;38796;42.702;23.306;2022-09-13T11:11:59;94989.03;;;24.42;34.57
52923;BME280;38796;42.702;23.306;2022-09-13T11:14:15;95005.09;;;24.79;33.39
52923;BME280;38796;42.702;23.306;2022-09-13T11:16:44;95002.41;;;24.90;32.60
52923;BME280;38796;42.702;23.306;2022-09-13T11:19:01;94982.03;;;24.83;32.14
52923;BME280;38796;42.702;23.306;2022-09-13T11:21:12;94998.25;;;24.64;32.87
52923;BME280;38796;42.702;23.306;2022-09-13T11:23:45;94979.47;;;24.28;33.18
52923;BME280;38796;42.702;23.306;2022-09-13T11:26:01;94981.75;;;23.69;34.77
52923;BME280;38796;42.702;23.306;2022-09-13T11:28:09;94980.22;;;23.55;33.87
52923;BME280;38796;42.702;23.306;2022-09-13T11:30:12;94971.94;;;24.00;33.64
52923;BME280;38796;42.702;23.306;2022-09-13T11:32:23;94973.19;;;23.97;33.85
52923;BME280;38796;42.702;23.306;2022-09-13T11:34:49;94982.16;;;23.91;33.42
52923;BME280;38796;42.702;23.306;2022-09-13T11:37:08;94976.13;;;23.52;33.37
52923;BME280;38796;42.702;23.306;2022-09-13T11:39:19;94972.38;;;23.78;33.07
52923;BME280;38796;42.702;23.306;2022-09-13T11:41:27;94970.56;;;23.90;33.36
52923;BME280;38796;42.702;23.306;2022-09-13T11:44:01;94969.00;;;23.83;33.39
52923;BME280;38796;42.702;23.306;2022-09-13T11:46:26;94968.94;;;23.71;33.49
52923;BME280;38796;42.702;23.306;2022-09-13T11:48:41;94965.00;;;23.73;34.96
52923;BME280;38796;42.702;23.306;2022-09-13T11:50:51;94969.06;;;23.76;34.90
52923;BME280;38796;42.702;23.306;2022-09-13T11:52:59;94974.25;;;23.96;34.28
52923;BME280;38796;42.702;23.306;2022-09-13T11:55:12;94965.66;;;24.06;34.11
52923;BME280;38796;42.702;23.306;2022-09-13T11:57:18;94972.25;;;23.91;33.41
52923;BME280;38796;42.702;23.306;2022-09-13T11:59:31;94959.63;;;23.73;33.41
52923;BME280;38796;42.702;23.306;2022-09-13T12:01:37;94972.88;;;23.68;34.04
52923;BME280;38796;42.702;23.306;2022-09-13T12:03:49;94963.91;;;23.56;34.92
52923;BME280;38796;42.702;23.306;2022-09-13T12:05:54;94965.75;;;23.37;33.77
52923;BME280;38796;42.702;23.306;2022-09-13T12:07:58;94969.50;;;23.30;33.93
52923;BME280;38796;42.702;23.306;2022-09-13T12:10:03;94960.53;;;23.17;34.77
52923;BME280;38796;42.702;23.306;2022-09-13T12:12:05;94974.56;;;23.19;34.89
52923;BME280;38796;42.702;23.306;2022-09-13T12:14:11;94975.53;;;23.25;35.21
52923;BME280;38796;42.702;23.306;2022-09-13T12:16:21;94982.44;;;23.39;34.70
52923;BME280;38796;42.702;23.306;2022-09-13T12:18:24;94958.22;;;23.21;35.16
52923;BME280;38796;42.702;23.306;2022-09-13T12:20:29;94965.81;;;23.06;34.84
52923;BME280;38796;42.702;23.306;2022-09-13T12:22:32;94963.97;;;23.24;35.22
52923;BME280;38796;42.702;23.306;2022-09-13T12:24:35;94966.22;;;23.27;34.69
52923;BME280;38796;42.702;23.306;2022-09-13T12:26:39;94963.75;;;23.26;34.96
52923;BME280;38796;42.702;23.306;2022-09-13T12:28:43;94962.34;;;23.23;34.19
52923;BME280;38796;42.702;23.306;2022-09-13T12:30:47;94966.19;;;23.34;34.57
52923;BME280;38796;42.702;23.306;2022-09-13T12:32:49;94961.94;;;23.45;34.09
52923;BME280;38796;42.702;23.306;2022-09-13T12:34:57;94960.66;;;23.47;34.55
52923;BME280;38796;42.702;23.306;2022-09-13T12:40:01;94965.81;;;23.74;35.02
52923;BME280;38796;42.702;23.306;2022-09-13T12:44:54;94955.75;;;23.44;34.59
52923;BME280;38796;42.702;23.306;2022-09-13T12:47:07;94966.22;;;23.27;35.12
52923;BME280;38796;42.702;23.306;2022-09-13T12:49:36;94958.91;;;23.16;35.47
52923;BME280;38796;42.702;23.306;2022-09-13T12:52:05;94954.53;;;22.90;35.05
52923;BME280;38796;42.702;23.306;2022-09-13T12:54:20;94959.72;;;22.92;36.02
52923;BME280;38796;42.702;23.306;2022-09-13T12:56:40;94956.88;;;22.80;35.26
52923;BME280;38796;42.702;23.306;2022-09-13T12:58:54;94954.19;;;22.80;35.37
52923;BME280;38796;42.702;23.306;2022-09-13T13:01:11;94952.88;;;22.89;35.34
52923;BME280;38796;42.702;23.306;2022-09-13T13:03:14;94974.13;;;22.66;36.38
52923;BME280;38796;42.702;23.306;2022-09-13T13:05:20;94973.13;;;22.22;36.72
52923;BME280;38796;42.702;23.306;2022-09-13T13:07:21;94974.88;;;21.83;37.49
52923;BME280;38796;42.702;23.306;2022-09-13T13:09:24;94972.78;;;21.98;38.08
52923;BME280;38796;42.702;23.306;2022-09-13T13:11:27;94963.69;;;21.99;38.54
52923;BME280;38796;42.702;23.306;2022-09-13T13:13:33;94971.09;;;22.04;37.51
52923;BME280;38796;42.702;23.306;2022-09-13T13:16:05;94964.88;;;22.17;37.20
52923;BME280;38796;42.702;23.306;2022-09-13T13:18:22;94966.91;;;22.21;37.09
52923;BME280;38796;42.702;23.306;2022-09-13T13:21:05;94958.81;;;22.35;36.08
52923;BME280;38796;42.702;23.306;2022-09-13T13:23:21;94955.66;;;22.44;35.59
52923;BME280;38796;42.702;23.306;2022-09-13T13:25:30;94970.97;;;22.37;36.90
52923;BME280;38796;42.702;23.306;2022-09-13T13:27:39;94973.13;;;22.22;37.60
52923;BME280;38796;42.702;23.306;2022-09-13T13:29:44;94980.63;;;22.00;38.67
52923;BME280;38796;42.702;23.306;2022-09-13T13:32:11;94971.66;;;21.54;38.65
52923;BME280;38796;42.702;23.306;2022-09-13T13:34:28;94978.72;;;21.42;39.61
52923;BME280;38796;42.702;23.306;2022-09-13T13:36:28;94976.44;;;21.39;38.17
52923;BME280;38796;42.702;23.306;2022-09-13T13:38:41;94970.03;;;21.40;38.57
52923;BME280;38796;42.702;23.306;2022-09-13T13:40:40;94973.75;;;21.39;38.84
52923;BME280;38796;42.702;23.306;2022-09-13T13:42:38;94972.72;;;21.40;38.64
52923;BME280;38796;42.702;23.306;2022-09-13T13:44:57;94970.03;;;21.40;38.80
52923;BME280;38796;42.702;23.306;2022-09-13T13:49:44;94974.34;;;21.54;40.06
52923;BME280;38796;42.702;23.306;2022-09-13T13:54:30;94979.31;;;21.44;39.13
52923;BME280;38796;42.702;23.306;2022-09-13T13:56:46;94990.84;;;21.38;39.63
52923;BME280;38796;42.702;23.306;2022-09-13T13:58:48;94975.22;;;21.35;38.80
52923;BME280;38796;42.702;23.306;2022-09-13T14:00:49;94977.25;;;21.40;39.51
52923;BME280;38796;42.702;23.306;2022-09-13T14:02:56;94977.84;;;21.42;39.41
52923;BME280;38796;42.702;23.306;2022-09-13T14:05:12;94985.94;;;21.35;39.13
52923;BME280;38796;42.702;23.306;2022-09-13T14:09:51;94969.63;;;21.37;39.41
52923;BME280;38796;42.702;23.306;2022-09-13T14:11:59;94984.25;;;21.47;38.87
52923;BME280;38796;42.702;23.306;2022-09-13T14:14:12;94974.53;;;21.53;39.98
52923;BME280;38796;42.702;23.306;2022-09-13T14:16:24;94988.97;;;21.58;38.92
52923;BME280;38796;42.702;23.306;2022-09-13T14:18:52;94978.03;;;21.60;38.47
52923;BME280;38796;42.702;23.306;2022-09-13T14:21:01;94988.72;;;21.73;37.78
52923;BME280;38796;42.702;23.306;2022-09-13T14:23:14;94984.22;;;21.61;38.42
52923;BME280;38796;42.702;23.306;2022-09-13T14:25:22;94989.78;;;21.52;38.28
52923;BME280;38796;42.702;23.306;2022-09-13T14:27:22;94984.25;;;21.47;38.49
52923;BME280;38796;42.702;23.306;2022-09-13T14:29:22;94999.50;;;21.33;39.44
52923;BME280;38796;42.702;23.306;2022-09-13T14:31:21;94999.88;;;21.24;39.69
52923;BME280;38796;42.702;23.306;2022-09-13T14:33:23;94991.25;;;21.15;39.85
52923;BME280;38796;42.702;23.306;2022-09-13T14:35:33;94994.34;;;21.19;40.03
52923;BME280;38796;42.702;23.306;2022-09-13T14:37:35;94987.97;;;21.06;39.75
52923;BME280;38796;42.702;23.306;2022-09-13T14:39:35;94989.81;;;20.93;39.76
52923;BME280;38796;42.702;23.306;2022-09-13T14:41:38;94984.66;;;20.91;39.64
52923;BME280;38796;42.702;23.306;2022-09-13T14:43:36;94979.72;;;20.95;39.37
52923;BME280;38796;42.702;23.306;2022-09-13T14:45:36;94979.09;;;20.93;39.08
52923;BME280;38796;42.702;23.306;2022-09-13T14:47:36;94991.44;;;20.94;39.07
52923;BME280;38796;42.702;23.306;2022-09-13T14:49:41;94994.53;;;20.91;39.58
52923;BME280;38796;42.702;23.306;2022-09-13T14:51:46;94987.13;;;20.86;39.08
52923;BME280;38796;42.702;23.306;2022-09-13T14:53:49;94987.53;;;20.83;38.73
52923;BME280;38796;42.702;23.306;2022-09-13T14:55:50;94987.34;;;20.78;38.84
52923;BME280;38796;42.702;23.306;2022-09-13T14:57:52;94992.28;;;20.81;38.93
52923;BME280;38796;42.702;23.306;2022-09-13T14:59:55;94993.50;;;20.78;38.59
52923;BME280;38796;42.702;23.306;2022-09-13T15:01:56;94988.56;;;20.82;39.34
52923;BME280;38796;42.702;23.306;2022-09-13T15:04:02;94996.19;;;20.85;38.98
52923;BME280;38796;42.702;23.306;2022-09-13T15:06:04;94992.44;;;20.73;38.34
52923;BME280;38796;42.702;23.306;2022-09-13T15:08:24;95000.47;;;20.66;38.90
52923;BME280;38796;42.702;23.306;2022-09-13T15:10:27;95002.91;;;20.54;38.64
52923;BME280;38796;42.702;23.306;2022-09-13T15:12:27;95000.81;;;20.43;39.12
52923;BME280;38796;42.702;23.306;2022-09-13T15:14:26;95005.72;;;20.39;39.34
52923;BME280;38796;42.702;23.306;2022-09-13T15:16:29;95001.59;;;20.30;39.48
52923;BME280;38796;42.702;23.306;2022-09-13T15:18:33;94994.97;;;20.26;39.92
52923;BME280;38796;42.702;23.306;2022-09-13T15:21:04;94994.13;;;20.19;40.02
52923;BME280;38796;42.702;23.306;2022-09-13T15:23:12;94992.31;;;20.20;40.16
52923;BME280;38796;42.702;23.306;2022-09-13T15:25:25;94998.44;;;20.13;40.84
52923;BME280;38796;42.702;23.306;2022-09-13T15:27:26;94994.09;;;20.06;40.89
52923;BME280;38796;42.702;23.306;2022-09-13T15:29:25;94988.47;;;19.94;41.47
52923;BME280;38796;42.702;23.306;2022-09-13T15:31:25;94990.16;;;19.95;41.86
52923;BME280;38796;42.702;23.306;2022-09-13T15:33:29;94985.81;;;19.94;42.02
52923;BME280;38796;42.702;23.306;2022-09-13T15:35:32;94995.66;;;19.87;41.93
52923;BME280;38796;42.702;23.306;2022-09-13T15:37:35;94996.63;;;19.79;42.03
52923;BME280;38796;42.702;23.306;2022-09-13T15:39:42;94994.00;;;19.86;41.61
52923;BME280;38796;42.702;23.306;2022-09-13T15:41:51;95001.84;;;19.94;42.26
52923;BME280;38796;42.702;23.306;2022-09-13T15:43:50;95000.59;;;19.90;42.38
52923;BME280;38796;42.702;23.306;2022-09-13T15:45:51;94998.34;;;19.93;41.92
52923;BME280;38796;42.702;23.306;2022-09-13T15:47:50;95003.88;;;19.85;41.82
52923;BME280;38796;42.702;23.306;2022-09-13T15:49:50;95008.34;;;19.78;42.43
52923;BME280;38796;42.702;23.306;2022-09-13T15:51:54;95009.34;;;19.71;42.95
52923;BME280;38796;42.702;23.306;2022-09-13T15:53:53;95013.44;;;19.66;42.50
52923;BME280;38796;42.702;23.306;2022-09-13T15:55:51;95009.88;;;19.59;42.63
52923;BME280;38796;42.702;23.306;2022-09-13T15:57:51;95020.94;;;19.56;42.67
52923;BME280;38796;42.702;23.306;2022-09-13T15:59:50;95022.00;;;19.62;42.62
52923;BME280;38796;42.702;23.306;2022-09-13T16:01:51;95025.84;;;19.53;43.03
52923;BME280;38796;42.702;23.306;2022-09-13T16:03:49;95026.19;;;19.43;43.43
52923;BME280;38796;42.702;23.306;2022-09-13T16:05:49;95019.97;;;19.36;43.58
52923;BME280;38796;42.702;23.306;2022-09-13T16:07:47;95028.78;;;19.30;43.89
52923;BME280;38796;42.702;23.306;2022-09-13T16:09:46;95026.72;;;19.32;44.19
52923;BME280;38796;42.702;23.306;2022-09-13T16:11:46;95024.81;;;19.26;44.84
52923;BME280;38796;42.702;23.306;2022-09-13T16:13:46;95034.06;;;19.23;44.60
52923;BME280;38796;42.702;23.306;2022-09-13T16:15:44;95030.88;;;19.13;44.90
52923;BME280;38796;42.702;23.306;2022-09-13T16:17:42;95027.72;;;19.03;45.06
52923;BME280;38796;42.702;23.306;2022-09-13T16:19:40;95032.00;;;18.97;45.83
52923;BME280;38796;42.702;23.306;2022-09-13T16:21:39;95032.63;;;18.99;45.05
52923;BME280;38796;42.702;23.306;2022-09-13T16:23:41;95021.31;;;18.97;45.22
52923;BME280;38796;42.702;23.306;2022-09-13T16:25:40;95021.50;;;18.95;45.71
52923;BME280;38796;42.702;23.306;2022-09-13T16:27:39;95024.88;;;18.83;46.37
52923;BME280;38796;42.702;23.306;2022-09-13T16:29:39;95031.81;;;18.77;45.90
52923;BME280;38796;42.702;23.306;2022-09-13T16:31:37;95031.91;;;18.69;46.33
52923;BME280;38796;42.702;23.306;2022-09-13T16:33:35;95030.72;;;18.57;46.47
52923;BME280;38796;42.702;23.306;2022-09-13T16:35:34;95038.41;;;18.45;46.74
52923;BME280;38796;42.702;23.306;2022-09-13T16:37:32;95042.09;;;18.44;47.10
52923;BME280;38796;42.702;23.306;2022-09-13T16:39:31;95039.16;;;18.39;46.62
52923;BME280;38796;42.702;23.306;2022-09-13T16:41:29;95038.09;;;18.33;46.84
52923;BME280;38796;42.702;23.306;2022-09-13T16:43:28;95041.69;;;18.25;47.55
52923;BME280;38796;42.702;23.306;2022-09-13T16:45:28;95037.56;;;18.23;47.72
52923;BME280;38796;42.702;23.306;2022-09-13T16:47:26;95049.03;;;18.23;48.34
52923;BME280;38796;42.702;23.306;2022-09-13T16:49:24;95045.63;;;18.30;48.00
52923;BME280;38796;42.702;23.306;2022-09-13T16:51:23;95050.69;;;18.24;48.03
52923;BME280;38796;42.702;23.306;2022-09-13T16:53:22;95054.09;;;18.18;48.54
52923;BME280;38796;42.702;23.306;2022-09-13T16:55:20;95049.50;;;18.12;49.20
52923;BME280;38796;42.702;23.306;2022-09-13T16:57:19;95056.97;;;18.02;49.48
52923;BME280;38796;42.702;23.306;2022-09-13T16:59:18;95061.66;;;18.00;49.84
52923;BME280;38796;42.702;23.306;2022-09-13T17:01:21;95065.50;;;17.97;49.88
52923;BME280;38796;42.702;23.306;2022-09-13T17:03:24;95067.00;;;18.00;50.05
52923;BME280;38796;42.702;23.306;2022-09-13T17:05:28;95067.16;;;17.98;50.10
52923;BME280;38796;42.702;23.306;2022-09-13T17:07:26;95071.88;;;17.96;50.47
52923;BME280;38796;42.702;23.306;2022-09-13T17:09:24;95072.59;;;17.90;50.38
52923;BME280;38796;42.702;23.306;2022-09-13T17:11:25;95080.38;;;17.92;50.66
52923;BME280;38796;42.702;23.306;2022-09-13T17:13:23;95073.78;;;17.88;50.81
52923;BME280;38796;42.702;23.306;2022-09-13T17:15:21;95079.84;;;17.82;51.04
52923;BME280;38796;42.702;23.306;2022-09-13T17:17:22;95091.22;;;17.75;51.25
52923;BME280;38796;42.702;23.306;2022-09-13T17:19:22;95096.44;;;17.69;51.23
52923;BME280;38796;42.702;23.306;2022-09-13T17:21:20;95092.63;;;17.63;51.57
52923;BME280;38796;42.702;23.306;2022-09-13T17:23:19;95091.56;;;17.58;51.79
52923;BME280;38796;42.702;23.306;2022-09-13T17:25:17;95087.50;;;17.47;52.14
52923;BME280;38796;42.702;23.306;2022-09-13T17:27:16;95089.41;;;17.38;52.52
52923;BME280;38796;42.702;23.306;2022-09-13T17:29:15;95089.94;;;17.34;52.79
52923;BME280;38796;42.702;23.306;2022-09-13T17:31:13;95089.94;;;17.34;53.23
52923;BME280;38796;42.702;23.306;2022-09-13T17:33:14;95094.16;;;17.28;53.43
52923;BME280;38796;42.702;23.306;2022-09-13T17:35:12;95095.06;;;17.20;53.70
52923;BME280;38796;42.702;23.306;2022-09-13T17:37:10;95103.75;;;17.14;53.91
52923;BME280;38796;42.702;23.306;2022-09-13T17:39:08;95103.09;;;17.12;53.97
52923;BME280;38796;42.702;23.306;2022-09-13T17:41:09;95103.44;;;17.09;54.10
52923;BME280;38796;42.702;23.306;2022-09-13T17:43:07;95104.66;;;17.07;54.52
52923;BME280;38796;42.702;23.306;2022-09-13T17:45:06;95103.09;;;17.12;54.63
52923;BME280;38796;42.702;23.306;2022-09-13T17:47:05;95111.41;;;17.09;54.31
52923;BME280;38796;42.702;23.306;2022-09-13T17:49:05;95108.72;;;17.17;54.43
52923;BME280;38796;42.702;23.306;2022-09-13T17:51:04;95109.06;;;17.14;54.44
52923;BME280;38796;42.702;23.306;2022-09-13T17:53:03;95114.38;;;17.14;54.65
52923;BME280;38796;42.702;23.306;2022-09-13T17:55:02;95108.88;;;17.16;54.60
52923;BME280;38796;42.702;23.306;2022-09-13T17:57:00;95111.06;;;17.12;54.62
52923;BME280;38796;42.702;23.306;2022-09-13T17:59:04;95106.00;;;17.02;54.92
52923;BME280;38796;42.702;23.306;2022-09-13T18:01:07;95105.69;;;16.97;55.28
52923;BME280;38796;42.702;23.306;2022-09-13T18:03:05;95125.34;;;16.96;55.14
52923;BME280;38796;42.702;23.306;2022-09-13T18:05:06;95126.34;;;16.95;55.37
52923;BME280;38796;42.702;23.306;2022-09-13T18:07:09;95122.53;;;16.90;55.59
52923;BME280;38796;42.702;23.306;2022-09-13T18:09:09;95118.59;;;16.86;55.67
52923;BME280;38796;42.702;23.306;2022-09-13T18:11:09;95127.19;;;16.88;55.67
52923;BME280;38796;42.702;23.306;2022-09-13T18:13:10;95119.22;;;16.88;55.67
52923;BME280;38796;42.702;23.306;2022-09-13T18:15:09;95123.72;;;16.87;55.91
52923;BME280;38796;42.702;23.306;2022-09-13T18:17:07;95124.53;;;16.88;55.64
52923;BME280;38796;42.702;23.306;2022-09-13T18:19:09;95125.28;;;16.81;56.03
52923;BME280;38796;42.702;23.306;2022-09-13T18:21:09;95121.25;;;16.86;55.97
52923;BME280;38796;42.702;23.306;2022-09-13T18:23:07;95120.78;;;16.82;55.79